Time,TemperatureF,DewpointF,PressureIn,WindDirection,WindDirectionDegrees,WindSpeedMPH,WindSpeedGustMPH,Humidity,HourlyPrecipIn,Conditions,Clouds,dailyrainin,SoftwareType,DateUTC
2013-07-26 00:01:00,53.0,43.0,30.77,North,5,9.0,11.0,68,0.00,,,0.09,,2013-07-26 07:01:00,
2013-07-26 00:12:00,53.0,43.0,30.77,North,5,9.0,11.0,68,0.00,,,0.09,,2013-07-26 07:12:00,
2013-07-26 00:53:00,52.0,46.0,30.78,NNW,344,8.0,13.0,80,0.00,,,0.13,,2013-07-26 07:53:00,
2013-07-26 01:01:00,52.0,44.0,30.77,North,352,8.0,12.0,75,0.00,,,0.09,,2013-07-26 08:01:00,
2013-07-26 01:11:00,52.0,44.0,30.77,North,359,8.0,12.0,75,0.00,,,0.09,,2013-07-26 08:11:00,
2013-07-26 01:43:00,53.0,43.0,30.77,NNE,12,7.0,11.0,68,0.00,,,0.09,,2013-07-26 08:43:00,
2013-07-26 04:52:00,52.0,42.0,30.76,North,352,11.0,19.0,68,0.00,,,0.00,,2013-07-26 11:52:00,
2013-07-26 05:01:00,52.0,41.0,30.76,NNE,17,6.0,16.0,67,0.00,,,0.00,,2013-07-26 12:01:00,
2013-07-26 05:11:00,52.0,41.0,30.76,NNE,23,6.0,15.0,66,0.00,,,0.00,,2013-07-26 12:11:00,
2013-07-26 08:32:00,53.0,47.0,30.81,NW,314,3.0,6.0,81,0.00,,,0.00,,2013-07-26 15:32:00,
2013-07-26 09:14:00,56.0,49.0,30.80,SSW,196,2.0,5.0,77,0.00,,,0.00,,2013-07-26 16:14:00,
2013-07-26 10:33:00,57.0,47.0,30.80,NNW,347,6.0,11.0,69,0.00,,,0.00,,2013-07-26 17:33:00,
2013-07-26 10:43:00,56.0,49.0,30.81,West,265,2.0,13.0,77,0.00,,,0.00,,2013-07-26 17:43:00,
2013-07-26 10:52:00,56.0,49.0,30.81,WNW,301,3.0,10.0,76,0.00,,,0.00,,2013-07-26 17:52:00,
2013-07-26 11:01:00,56.0,49.0,30.81,NW,310,2.0,4.0,76,0.00,,,0.00,,2013-07-26 18:01:00,
2013-07-26 11:32:00,55.0,48.0,30.81,SW,220,1.0,5.0,77,0.00,,,0.00,,2013-07-26 18:32:00,
2013-07-26 11:52:00,55.0,50.0,30.80,West,277,2.0,4.0,83,0.00,,,0.00,,2013-07-26 18:52:00,
2013-07-26 12:01:00,55.0,50.0,30.82,North,0,0.0,3.0,84,0.00,,,0.00,,2013-07-26 19:01:00,
2013-07-26 12:11:00,54.0,48.0,30.81,WSW,237,1.0,4.0,81,0.00,,,0.00,,2013-07-26 19:11:00,
2013-07-26 12:43:00,53.0,49.0,30.82,WNW,297,2.0,5.0,85,0.08,,,0.08,,2013-07-26 19:43:00,
2013-07-26 12:52:00,53.0,49.0,30.82,WNW,297,2.0,5.0,85,0.08,,,0.08,,2013-07-26 19:52:00,
2013-07-26 13:32:00,54.0,40.0,30.79,North,5,8.0,16.0,58,0.16,,,0.16,,2013-07-26 20:32:00,
2013-07-26 15:32:00,58.0,52.0,30.77,SW,223,3.0,11.0,80,0.00,,,0.16,,2013-07-26 22:32:00,
2013-07-26 15:43:00,57.0,52.0,30.77,SW,226,3.0,10.0,84,0.00,,,0.16,,2013-07-26 22:43:00,
2013-07-26 15:53:00,56.0,52.0,30.76,SW,236,3.0,11.0,88,0.00,,,0.16,,2013-07-26 22:53:00,
2013-07-26 16:02:00,55.0,52.0,30.76,West,259,1.0,10.0,91,0.00,,,0.16,,2013-07-26 23:02:00,
2013-07-26 16:11:00,54.0,51.0,30.76,West,262,2.0,5.0,91,0.00,,,0.16,,2013-07-26 23:11:00,
2013-07-26 16:53:00,48.0,-99.9,30.77,NW,324,5.0,14.0,-999,0.16,,,0.32,,2013-07-26 23:53:00,
2013-07-26 17:22:00,51.0,49.0,30.76,SW,227,1.0,8.0,93,0.19,,,0.35,,2013-07-27 00:22:00,
2013-07-26 17:32:00,51.0,49.0,30.76,SW,227,1.0,8.0,93,0.19,,,0.35,,2013-07-27 00:32:00,
2013-07-26 17:42:00,51.0,49.0,30.76,SW,227,1.0,8.0,93,0.19,,,0.35,,2013-07-27 00:42:00,